createdAt,value
2018-02-20T00:00:02.397Z,0.10
2018-02-20T00:02:30.219Z,0.00
2018-02-20T00:04:57.648Z,0.10
2018-02-20T00:07:25.088Z,0.10
2018-02-20T00:09:52.518Z,0.00
2018-02-20T00:12:20.045Z,0.00
2018-02-20T00:14:47.529Z,0.00
2018-02-20T00:17:16.526Z,0.00
2018-02-20T00:19:44.033Z,-0.10
2018-02-20T00:22:15.100Z,0.00
2018-02-20T00:24:44.277Z,0.00
2018-02-20T00:27:12.501Z,0.00
2018-02-20T00:29:40.112Z,0.00
2018-02-20T00:32:07.672Z,-0.10
2018-02-20T00:34:35.917Z,-0.10
2018-02-20T00:37:03.359Z,-0.10
2018-02-20T00:39:30.788Z,0.00
2018-02-20T00:41:58.421Z,0.00
2018-02-20T00:44:26.064Z,0.00
2018-02-20T00:46:53.894Z,0.00
2018-02-20T00:49:21.368Z,0.00
2018-02-20T00:51:49.205Z,-0.10
2018-02-20T00:54:16.852Z,-0.10
2018-02-20T00:56:44.311Z,-0.10
2018-02-20T00:59:11.773Z,-0.10
2018-02-20T01:01:39.198Z,0.00
2018-02-20T01:04:07.492Z,0.00
2018-02-20T01:06:34.930Z,-0.10
2018-02-20T01:09:02.393Z,0.00
2018-02-20T01:11:29.851Z,-0.10
2018-02-20T01:13:57.911Z,-0.10
2018-02-20T01:16:25.351Z,-0.10
2018-02-20T01:18:52.782Z,-0.10
2018-02-20T01:21:20.220Z,-0.10
2018-02-20T01:23:47.652Z,0.00
2018-02-20T01:26:15.092Z,0.00
2018-02-20T01:28:42.515Z,0.00
2018-02-20T01:31:10.329Z,0.00
2018-02-20T01:33:37.766Z,0.00
2018-02-20T01:36:05.196Z,0.00
2018-02-20T01:38:32.626Z,0.00
2018-02-20T01:41:00.060Z,0.00
2018-02-20T01:43:27.495Z,0.00
2018-02-20T01:45:54.916Z,0.00
2018-02-20T01:48:22.745Z,0.00
2018-02-20T01:51:01.889Z,0.00
2018-02-20T01:53:29.324Z,-0.10
2018-02-20T01:55:56.754Z,0.00
2018-02-20T01:58:24.196Z,0.00
2018-02-20T02:00:51.636Z,0.40
2018-02-20T02:03:19.065Z,0.40
2018-02-20T02:05:46.500Z,0.40
2018-02-20T02:08:13.921Z,0.30
2018-02-20T02:10:41.352Z,0.40
2018-02-20T02:13:10.207Z,0.50
2018-02-20T02:15:37.985Z,0.40
2018-02-20T02:18:05.401Z,0.40
2018-02-20T02:20:32.863Z,0.30
2018-02-20T02:23:00.297Z,0.30
2018-02-20T02:25:27.728Z,0.50
2018-02-20T02:27:55.548Z,0.80
2018-02-20T02:30:22.980Z,0.80
2018-02-20T02:32:50.402Z,0.60
2018-02-20T02:35:17.834Z,0.60
2018-02-20T02:37:45.264Z,0.60
2018-02-20T02:40:12.694Z,0.70
2018-02-20T02:42:40.512Z,1.20
2018-02-20T02:45:07.942Z,1.20
2018-02-20T02:47:35.360Z,1.10
2018-02-20T02:50:02.803Z,1.10
2018-02-20T02:52:30.227Z,1.20
2018-02-20T02:54:57.675Z,1.20
2018-02-20T02:57:25.098Z,1.20
2018-02-20T02:59:52.547Z,1.20
2018-02-20T03:02:20.361Z,1.20
2018-02-20T03:04:47.797Z,1.20
2018-02-20T03:07:15.228Z,1.20
2018-02-20T03:09:43.060Z,1.20
2018-02-20T03:12:10.493Z,1.20
2018-02-20T03:14:38.537Z,1.10
2018-02-20T03:17:05.973Z,1.10
2018-02-20T03:19:33.805Z,1.20
2018-02-20T03:22:01.227Z,1.20
2018-02-20T03:24:28.656Z,1.20
2018-02-20T03:26:56.464Z,1.20
2018-02-20T03:29:23.905Z,1.20
2018-02-20T03:31:51.328Z,1.20
2018-02-20T03:34:19.154Z,1.20
2018-02-20T03:36:46.572Z,1.20
2018-02-20T03:39:14.008Z,1.20
2018-02-20T03:41:41.824Z,1.10
2018-02-20T03:44:09.256Z,1.10
2018-02-20T03:46:36.746Z,1.00
2018-02-20T03:49:04.180Z,1.10
2018-02-20T03:51:31.617Z,1.00
2018-02-20T03:53:59.052Z,1.00
2018-02-20T03:56:26.877Z,0.90
2018-02-20T03:58:54.325Z,0.90
2018-02-20T04:01:21.778Z,0.80
2018-02-20T04:03:49.204Z,0.80
2018-02-20T04:06:16.635Z,0.70
2018-02-20T04:08:44.056Z,0.70
2018-02-20T04:11:11.497Z,0.60
2018-02-20T04:13:38.909Z,0.60
2018-02-20T04:16:06.737Z,0.40
2018-02-20T04:18:35.030Z,0.40
2018-02-20T04:21:02.456Z,0.30
2018-02-20T04:23:29.913Z,0.30
2018-02-20T04:25:57.324Z,0.30
2018-02-20T04:28:25.148Z,0.20
2018-02-20T04:30:52.599Z,0.20
2018-02-20T04:33:20.016Z,0.20
2018-02-20T04:35:47.454Z,0.10
2018-02-20T04:38:15.279Z,0.00
2018-02-20T04:40:42.724Z,-0.10
2018-02-20T04:43:10.194Z,0.00
2018-02-20T04:45:37.605Z,-0.10
2018-02-20T04:48:05.145Z,-0.10
2018-02-20T04:50:32.560Z,-0.10
2018-02-20T04:52:59.986Z,-0.20
2018-02-20T04:55:27.424Z,-0.20
2018-02-20T04:57:54.881Z,-0.30
2018-02-20T05:00:22.382Z,-0.30
2018-02-20T05:02:49.804Z,-0.30
2018-02-20T05:05:17.270Z,-0.40
2018-02-20T05:07:44.707Z,-0.40
2018-02-20T05:10:12.155Z,-0.40
2018-02-20T05:12:39.988Z,-0.40
2018-02-20T05:15:07.435Z,-0.40
2018-02-20T05:17:34.856Z,-0.50
2018-02-20T05:20:02.288Z,-0.50
2018-02-20T05:22:30.113Z,-0.50
2018-02-20T05:24:57.548Z,-0.50
2018-02-20T05:27:24.980Z,-0.50
2018-02-20T05:29:52.420Z,-0.50
2018-02-20T05:32:19.852Z,-0.50
2018-02-20T05:34:47.297Z,-0.50
2018-02-20T05:37:14.724Z,-0.50
2018-02-20T05:39:42.169Z,-0.50
2018-02-20T05:42:09.597Z,-0.50
2018-02-20T05:44:37.436Z,-0.40
2018-02-20T05:47:04.905Z,-0.40
2018-02-20T05:49:32.349Z,-0.40
2018-02-20T05:51:59.780Z,-0.40
2018-02-20T05:54:27.218Z,-0.50
2018-02-20T05:56:54.681Z,-0.50
2018-02-20T05:59:22.144Z,-0.50
2018-02-20T06:01:49.572Z,-0.50
2018-02-20T06:04:17.013Z,-0.40
2018-02-20T06:06:44.444Z,-0.40
2018-02-20T06:09:11.872Z,-0.40
2018-02-20T06:11:39.310Z,-0.40
2018-02-20T06:14:06.756Z,-0.40
2018-02-20T06:16:34.222Z,-0.40
2018-02-20T06:19:01.688Z,-0.40
2018-02-20T06:21:29.108Z,-0.30
2018-02-20T06:23:56.933Z,-0.30
2018-02-20T06:26:24.369Z,-0.30
2018-02-20T06:28:51.796Z,-0.30
2018-02-20T06:31:19.641Z,-0.30
2018-02-20T06:33:47.066Z,-0.30
2018-02-20T06:36:14.504Z,-0.20
2018-02-20T06:38:41.942Z,-0.10
2018-02-20T06:41:09.386Z,-0.20
2018-02-20T06:43:37.205Z,-0.10
2018-02-20T06:46:04.648Z,-0.10
2018-02-20T06:48:32.079Z,0.00
2018-02-20T06:50:59.515Z,0.00
2018-02-20T06:53:27.338Z,0.00
2018-02-20T06:55:54.772Z,0.00
2018-02-20T06:58:22.244Z,0.00
2018-02-20T07:00:49.637Z,0.00
2018-02-20T07:03:17.062Z,0.10
2018-02-20T07:05:44.520Z,0.00
2018-02-20T07:08:11.947Z,0.00
2018-02-20T07:10:39.398Z,0.00
2018-02-20T07:13:06.820Z,0.10
2018-02-20T07:15:34.257Z,0.10
2018-02-20T07:18:01.686Z,0.10
2018-02-20T07:20:29.221Z,0.10
2018-02-20T07:22:56.624Z,0.20
2018-02-20T07:25:24.065Z,0.20
2018-02-20T07:27:51.496Z,0.30
2018-02-20T07:30:18.941Z,0.20
2018-02-20T07:32:46.382Z,0.20
2018-02-20T07:35:14.245Z,0.30
2018-02-20T07:37:42.063Z,0.40
2018-02-20T07:40:09.513Z,0.40
2018-02-20T07:42:36.941Z,0.40
2018-02-20T07:45:04.372Z,0.50
2018-02-20T07:47:31.820Z,0.60
2018-02-20T07:49:59.250Z,0.50
2018-02-20T07:52:26.685Z,0.60
2018-02-20T07:54:54.117Z,0.60
2018-02-20T07:57:21.548Z,0.60
2018-02-20T07:59:48.964Z,0.70
2018-02-20T08:02:16.448Z,0.70
2018-02-20T08:04:43.872Z,0.90
2018-02-20T08:07:11.306Z,0.90
2018-02-20T08:09:38.732Z,0.90
2018-02-20T08:12:30.917Z,0.90
2018-02-20T08:14:58.345Z,0.90
2018-02-20T08:17:25.818Z,1.00
2018-02-20T08:19:53.206Z,1.10
2018-02-20T08:22:20.639Z,1.10
2018-02-20T08:24:48.064Z,1.20
2018-02-20T08:27:15.889Z,1.10
2018-02-20T08:29:43.322Z,1.10
2018-02-20T08:32:10.764Z,1.10
2018-02-20T08:34:38.184Z,1.10
2018-02-20T08:37:06.014Z,1.20
2018-02-20T08:39:33.469Z,1.10
2018-02-20T08:42:00.909Z,1.20
2018-02-20T08:44:28.358Z,1.20
2018-02-20T08:46:55.812Z,1.20
2018-02-20T08:49:23.248Z,1.10
2018-02-20T08:51:50.686Z,1.10
2018-02-20T08:54:18.112Z,1.20
2018-02-20T08:56:45.536Z,1.20
2018-02-20T08:59:12.952Z,1.20
2018-02-20T09:01:40.432Z,1.10
2018-02-20T09:04:07.869Z,1.10
2018-02-20T09:06:35.300Z,1.20
2018-02-20T09:09:02.727Z,1.20
2018-02-20T09:11:30.168Z,1.30
2018-02-20T09:13:57.596Z,1.40
2018-02-20T09:16:25.420Z,1.50
2018-02-20T09:18:52.854Z,1.50
2018-02-20T09:21:20.279Z,1.40
2018-02-20T09:23:48.111Z,1.20
2018-02-20T09:26:16.173Z,1.20
2018-02-20T09:28:43.611Z,1.20
2018-02-20T09:31:11.047Z,1.20
2018-02-20T09:33:38.475Z,1.30
2018-02-20T09:36:05.918Z,1.30
2018-02-20T09:38:33.367Z,1.30
2018-02-20T09:41:00.794Z,1.20
2018-02-20T09:43:28.234Z,1.20
2018-02-20T09:45:55.660Z,1.30
2018-02-20T09:48:23.488Z,1.30
2018-02-20T09:50:50.925Z,1.30
2018-02-20T09:53:18.352Z,1.40
2018-02-20T09:55:45.784Z,1.40
2018-02-20T09:58:13.207Z,1.40
2018-02-20T10:00:40.652Z,1.50
2018-02-20T10:03:08.092Z,1.50
2018-02-20T10:05:35.517Z,1.40
2018-02-20T10:08:03.347Z,1.50
2018-02-20T10:10:30.800Z,1.50
2018-02-20T10:12:58.233Z,1.60
2018-02-20T10:15:25.675Z,1.60
2018-02-20T10:17:53.108Z,1.60
2018-02-20T10:20:20.932Z,1.60
2018-02-20T10:22:48.381Z,1.60
2018-02-20T10:25:15.809Z,1.60
2018-02-20T10:27:43.277Z,1.70
2018-02-20T10:30:10.714Z,1.80
2018-02-20T10:32:38.545Z,1.90
2018-02-20T10:35:05.970Z,1.90
2018-02-20T10:37:33.404Z,1.90
2018-02-20T10:40:00.833Z,2.00
2018-02-20T10:42:28.277Z,1.90
2018-02-20T10:44:55.698Z,2.00
2018-02-20T10:47:23.149Z,2.00
2018-02-20T10:49:50.585Z,2.10
2018-02-20T10:52:18.012Z,2.10
2018-02-20T10:54:45.837Z,2.30
2018-02-20T10:57:13.265Z,2.30
2018-02-20T10:59:45.597Z,2.40
2018-02-20T11:02:13.037Z,2.40
2018-02-20T11:04:40.460Z,2.40
2018-02-20T11:07:07.895Z,2.40
2018-02-20T11:09:35.332Z,2.40
2018-02-20T11:12:03.156Z,2.50
2018-02-20T11:14:30.593Z,2.50
2018-02-20T11:16:58.036Z,2.50
2018-02-20T11:19:25.456Z,2.50
2018-02-20T11:21:52.901Z,2.70
2018-02-20T11:24:20.321Z,2.80
2018-02-20T11:26:47.760Z,2.80
2018-02-20T11:29:15.184Z,2.90
2018-02-20T11:31:43.016Z,3.00
2018-02-20T11:34:10.447Z,3.00
2018-02-20T11:36:37.899Z,3.00
2018-02-20T11:39:06.233Z,3.00
2018-02-20T11:41:33.685Z,3.10
2018-02-20T11:44:01.099Z,3.20
2018-02-20T11:46:28.537Z,3.20
2018-02-20T11:48:55.960Z,3.30
2018-02-20T11:51:23.400Z,3.40
2018-02-20T11:53:50.829Z,3.40
2018-02-20T11:56:18.265Z,3.50
2018-02-20T11:58:45.748Z,3.60
2018-02-20T12:01:13.192Z,3.70
2018-02-20T12:03:40.628Z,3.80
2018-02-20T12:06:08.464Z,3.90
2018-02-20T12:08:35.896Z,3.90
2018-02-20T12:11:03.325Z,4.00
2018-02-20T12:13:30.771Z,4.10
2018-02-20T12:15:58.581Z,4.10
2018-02-20T12:18:26.007Z,4.10
2018-02-20T12:20:53.457Z,4.20
2018-02-20T12:23:20.888Z,4.20
2018-02-20T12:25:48.704Z,4.30
2018-02-20T12:28:16.142Z,4.30
2018-02-20T12:30:43.580Z,4.40
2018-02-20T12:33:11.013Z,4.40
2018-02-20T12:35:38.433Z,4.50
2018-02-20T12:38:05.864Z,4.40
2018-02-20T12:40:33.284Z,4.40
2018-02-20T12:43:01.117Z,4.70
2018-02-20T12:45:28.539Z,4.70
2018-02-20T12:47:55.986Z,4.80
2018-02-20T12:50:23.408Z,4.70
2018-02-20T12:52:50.853Z,4.70
2018-02-20T12:55:18.268Z,4.70
2018-02-20T12:57:45.695Z,4.80
2018-02-20T13:00:13.130Z,4.90
2018-02-20T13:02:40.569Z,4.80
2018-02-20T13:05:08.015Z,4.70
2018-02-20T13:07:35.442Z,4.70
2018-02-20T13:10:02.864Z,4.80
2018-02-20T13:12:30.297Z,4.80
2018-02-20T13:14:57.740Z,4.70
2018-02-20T13:17:25.176Z,4.70
2018-02-20T13:19:52.616Z,4.90
2018-02-20T13:22:20.052Z,4.90
2018-02-20T13:24:47.876Z,4.80
2018-02-20T13:27:15.345Z,4.80
2018-02-20T13:29:42.774Z,4.70
2018-02-20T13:32:10.217Z,4.80
2018-02-20T13:34:37.654Z,4.80
2018-02-20T13:37:05.085Z,4.80
2018-02-20T13:39:32.918Z,4.80
2018-02-20T13:42:00.350Z,4.80
2018-02-20T13:44:27.780Z,4.70
2018-02-20T13:46:55.228Z,4.60
2018-02-20T13:49:23.045Z,4.40
2018-02-20T13:51:50.484Z,4.40
2018-02-20T13:54:17.915Z,4.40
2018-02-20T13:56:45.345Z,4.50
2018-02-20T13:59:12.777Z,4.70
2018-02-20T14:01:40.240Z,4.70
2018-02-20T14:04:07.667Z,4.70
2018-02-20T14:06:35.104Z,4.70
2018-02-20T14:09:02.533Z,4.80
2018-02-20T14:11:30.360Z,4.70
2018-02-20T14:13:57.804Z,4.70
2018-02-20T14:16:25.249Z,4.70
2018-02-20T14:18:52.698Z,4.70
2018-02-20T14:21:20.133Z,4.70
2018-02-20T14:23:47.572Z,4.70
2018-02-20T14:26:15.002Z,4.70
2018-02-20T14:28:42.440Z,4.80
2018-02-20T14:31:09.856Z,4.70
2018-02-20T14:33:37.686Z,4.60
2018-02-20T14:36:05.111Z,4.60
2018-02-20T14:38:32.545Z,4.70
2018-02-20T14:40:59.998Z,4.70
2018-02-20T14:43:27.428Z,4.70
2018-02-20T14:45:54.854Z,4.70
2018-02-20T14:48:22.301Z,4.70
2018-02-20T14:50:50.545Z,4.60
2018-02-20T14:53:18.367Z,4.60
2018-02-20T14:55:45.819Z,4.60
2018-02-20T14:58:13.257Z,4.50
2018-02-20T15:00:40.713Z,4.60
2018-02-20T15:03:08.142Z,4.50
2018-02-20T15:05:35.576Z,4.50
2018-02-20T15:08:03.004Z,4.50
2018-02-20T15:10:30.441Z,4.60
2018-02-20T15:12:57.892Z,4.50
2018-02-20T15:15:25.320Z,4.40
2018-02-20T15:17:52.740Z,4.30
2018-02-20T15:20:20.167Z,4.20
2018-02-20T15:22:47.600Z,4.20
2018-02-20T15:25:15.032Z,4.10
2018-02-20T15:27:42.464Z,4.10
2018-02-20T15:30:09.896Z,4.10
2018-02-20T15:32:37.368Z,4.20
2018-02-20T15:35:04.815Z,4.10
2018-02-20T15:37:32.256Z,4.00
2018-02-20T15:39:59.684Z,3.90
2018-02-20T15:42:27.105Z,3.90
2018-02-20T15:44:54.541Z,3.90
2018-02-20T15:47:21.976Z,3.90
2018-02-20T15:49:49.414Z,3.80
2018-02-20T15:52:16.840Z,3.80
2018-02-20T15:54:44.298Z,3.80
2018-02-20T15:57:11.729Z,3.80
2018-02-20T15:59:39.162Z,3.70
2018-02-20T16:02:06.585Z,3.60
2018-02-20T16:04:34.012Z,3.60
2018-02-20T16:07:01.448Z,3.60
2018-02-20T16:09:28.889Z,3.70
2018-02-20T16:11:56.334Z,3.60
2018-02-20T16:14:23.768Z,3.50
2018-02-20T16:16:51.233Z,3.50
2018-02-20T16:19:19.033Z,3.40
2018-02-20T16:21:46.459Z,3.40
2018-02-20T16:24:13.902Z,3.40
2018-02-20T16:26:41.352Z,3.40
2018-02-20T16:29:09.174Z,3.40
2018-02-20T16:31:36.614Z,3.30
2018-02-20T16:34:04.053Z,3.40
2018-02-20T16:36:31.488Z,3.30
2018-02-20T16:38:58.916Z,3.30
2018-02-20T16:41:26.364Z,3.40
2018-02-20T16:43:53.795Z,3.30
2018-02-20T16:46:21.206Z,3.30
2018-02-20T16:48:49.032Z,3.20
2018-02-20T16:51:16.461Z,3.20
2018-02-20T16:53:43.916Z,3.20
2018-02-20T16:56:11.340Z,3.10
2018-02-20T16:58:38.785Z,3.00
2018-02-20T17:01:06.206Z,3.00
2018-02-20T17:03:33.657Z,3.00
2018-02-20T17:06:01.084Z,3.00
2018-02-20T17:08:28.520Z,3.00
2018-02-20T17:10:56.359Z,2.90
2018-02-20T17:13:23.774Z,2.90
2018-02-20T17:15:51.201Z,2.90
2018-02-20T17:18:18.629Z,2.90
2018-02-20T17:20:46.058Z,2.90
2018-02-20T17:23:13.521Z,3.00
2018-02-20T17:25:40.957Z,2.90
2018-02-20T17:28:08.427Z,2.90
2018-02-20T17:30:35.852Z,2.90
2018-02-20T17:33:03.289Z,2.90
2018-02-20T17:35:31.159Z,2.90
2018-02-20T17:38:00.787Z,3.00
2018-02-20T17:40:26.445Z,3.00
2018-02-20T17:42:53.871Z,2.90
2018-02-20T17:45:21.303Z,3.00
2018-02-20T17:47:49.617Z,3.00
2018-02-20T17:50:17.029Z,3.00
2018-02-20T17:52:44.509Z,3.00
2018-02-20T17:55:11.987Z,3.00
2018-02-20T17:57:39.430Z,3.00
2018-02-20T18:00:06.920Z,3.10
2018-02-20T18:02:34.338Z,3.10
2018-02-20T18:05:01.820Z,3.10
2018-02-20T18:07:29.267Z,3.20
2018-02-20T18:09:56.729Z,3.10
2018-02-20T18:12:24.190Z,3.10
2018-02-20T18:14:51.626Z,3.10
2018-02-20T18:17:19.053Z,3.10
2018-02-20T18:19:46.584Z,3.10
2018-02-20T18:22:14.028Z,3.20
2018-02-20T18:24:41.466Z,3.20
2018-02-20T18:27:08.892Z,3.20
2018-02-20T18:29:36.333Z,3.20
2018-02-20T18:32:03.752Z,3.10
2018-02-20T18:34:31.194Z,3.20
2018-02-20T18:36:58.943Z,3.20
2018-02-20T18:39:26.369Z,3.20
2018-02-20T18:41:53.823Z,3.30
2018-02-20T18:44:22.624Z,3.30
2018-02-20T18:46:50.641Z,3.20
2018-02-20T18:49:18.143Z,3.20
2018-02-20T18:51:47.469Z,3.30
2018-02-20T18:54:16.377Z,3.30
2018-02-20T18:56:43.833Z,3.30
2018-02-20T18:59:12.167Z,3.20
2018-02-20T19:01:40.444Z,3.20
2018-02-20T19:04:07.890Z,3.20
2018-02-20T19:06:35.984Z,3.20
2018-02-20T19:09:03.430Z,3.20
2018-02-20T19:11:30.877Z,3.20
2018-02-20T19:13:58.714Z,3.20
2018-02-20T19:16:26.154Z,3.20
2018-02-20T19:18:53.618Z,3.20
2018-02-20T19:21:22.455Z,3.20
2018-02-20T19:23:50.873Z,3.10
2018-02-20T19:26:19.771Z,3.10
2018-02-20T19:28:47.277Z,3.10
2018-02-20T19:31:20.463Z,3.10
2018-02-20T19:33:49.897Z,3.10
2018-02-20T19:36:17.341Z,3.10
2018-02-20T19:38:45.378Z,3.10
2018-02-20T19:41:12.816Z,3.00
2018-02-20T19:43:40.474Z,3.00
2018-02-20T19:46:07.923Z,3.00
2018-02-20T19:48:35.371Z,3.00
2018-02-20T19:51:02.826Z,3.00
2018-02-20T19:53:31.129Z,2.90
2018-02-20T19:55:58.593Z,2.90
2018-02-20T19:58:26.056Z,2.90
2018-02-20T20:00:53.766Z,2.90
2018-02-20T20:03:21.232Z,2.80
2018-02-20T20:05:49.028Z,2.70
2018-02-20T20:08:16.454Z,2.70
2018-02-20T20:10:43.914Z,2.70
2018-02-20T20:13:11.359Z,2.70
2018-02-20T20:15:38.786Z,2.70
2018-02-20T20:18:06.602Z,2.70
2018-02-20T20:20:37.010Z,2.70
2018-02-20T20:23:01.483Z,2.60
2018-02-20T20:25:28.936Z,2.60
2018-02-20T20:27:56.357Z,2.60
2018-02-20T20:30:23.787Z,2.60
2018-02-20T20:32:51.213Z,2.60
2018-02-20T20:35:18.644Z,2.60
2018-02-20T20:37:46.465Z,2.50
2018-02-20T20:40:13.908Z,2.50
2018-02-20T20:42:41.333Z,2.50
2018-02-20T20:45:08.765Z,2.40
2018-02-20T20:47:36.193Z,2.40
2018-02-20T20:50:03.625Z,2.50
2018-02-20T20:52:31.052Z,2.50
2018-02-20T20:54:58.480Z,2.40
2018-02-20T20:57:25.909Z,2.30
2018-02-20T20:59:53.343Z,2.20
2018-02-20T21:02:20.765Z,2.20
2018-02-20T21:04:48.196Z,2.10
2018-02-20T21:07:15.625Z,2.10
2018-02-20T21:09:43.073Z,2.10
2018-02-20T21:12:10.501Z,2.10
2018-02-20T21:14:37.946Z,2.10
2018-02-20T21:17:05.765Z,2.00
2018-02-20T21:19:33.200Z,2.10
2018-02-20T21:22:00.619Z,2.00
2018-02-20T21:24:28.055Z,2.00
2018-02-20T21:26:55.491Z,2.00
2018-02-20T21:29:22.929Z,2.00
2018-02-20T21:31:50.366Z,1.90
2018-02-20T21:34:17.813Z,1.90
2018-02-20T21:36:45.625Z,1.90
2018-02-20T21:39:13.068Z,1.90
2018-02-20T21:41:40.479Z,1.90
2018-02-20T21:44:07.912Z,1.90
2018-02-20T21:46:35.346Z,1.90
2018-02-20T21:49:02.824Z,1.90
2018-02-20T21:51:30.256Z,1.90
2018-02-20T21:53:57.687Z,1.90
2018-02-20T21:56:25.132Z,2.00
2018-02-20T21:58:52.569Z,2.00
2018-02-20T22:01:20.386Z,2.00
2018-02-20T22:03:47.833Z,2.00
2018-02-20T22:06:15.316Z,1.90
2018-02-20T22:08:42.700Z,1.90
2018-02-20T22:11:10.521Z,1.80
2018-02-20T22:13:37.950Z,1.80
2018-02-20T22:16:05.375Z,1.80
2018-02-20T22:18:32.825Z,1.80
2018-02-20T22:21:00.248Z,1.80
2018-02-20T22:23:27.676Z,1.80
2018-02-20T22:25:55.138Z,1.80
2018-02-20T22:28:22.556Z,1.90
2018-02-20T22:30:50.424Z,1.80
2018-02-20T22:33:17.841Z,1.80
2018-02-20T22:35:45.278Z,1.80
2018-02-20T22:38:12.719Z,1.80
2018-02-20T22:40:40.162Z,1.80
2018-02-20T22:43:07.984Z,1.80
2018-02-20T22:45:35.425Z,1.80
2018-02-20T22:48:02.853Z,1.80
2018-02-20T22:50:30.281Z,1.70
2018-02-20T22:52:57.712Z,1.70
2018-02-20T22:55:25.156Z,1.70
2018-02-20T22:57:52.584Z,1.60
2018-02-20T23:00:20.036Z,1.50
2018-02-20T23:02:47.472Z,1.40
2018-02-20T23:05:15.336Z,1.40
2018-02-20T23:07:43.178Z,1.40
2018-02-20T23:10:10.620Z,1.40
2018-02-20T23:12:38.057Z,1.40
2018-02-20T23:15:05.633Z,1.30
2018-02-20T23:17:33.051Z,1.20
2018-02-20T23:20:00.487Z,1.20
2018-02-20T23:22:28.317Z,1.20
2018-02-20T23:24:55.774Z,1.20
2018-02-20T23:27:23.252Z,1.20
2018-02-20T23:29:50.668Z,1.20
2018-02-20T23:32:18.162Z,1.20
2018-02-20T23:34:45.582Z,1.10
2018-02-20T23:37:13.024Z,1.10
2018-02-20T23:39:40.459Z,1.10
2018-02-20T23:42:07.889Z,1.10
2018-02-20T23:44:35.316Z,1.10
2018-02-20T23:47:02.762Z,1.20
2018-02-20T23:49:30.186Z,1.20
2018-02-20T23:51:57.620Z,1.10
2018-02-20T23:54:25.442Z,1.20
2018-02-20T23:56:52.886Z,1.20
2018-02-20T23:59:20.296Z,1.20
